sensor_id;sensor_type;location;lat;lon;timestamp;pressure;altitude;pressure_sealevel;temperature;humidity
76680;BME280;65597;51.520;-0.224;2023-01-25T00:01:56;103711.61;;;6.26;33.64
76680;BME280;65597;51.520;-0.224;2023-01-25T00:04:27;103707.71;;;6.47;33.60
76680;BME280;65597;51.520;-0.224;2023-01-25T00:06:47;103710.74;;;6.16;33.63
76680;BME280;65597;51.520;-0.224;2023-01-25T00:09:13;103706.52;;;6.15;33.75
76680;BME280;65597;51.520;-0.224;2023-01-25T00:11:37;103705.56;;;6.30;33.77
76680;BME280;65597;51.520;-0.224;2023-01-25T00:14:03;103707.88;;;6.27;33.76
76680;BME280;65597;51.520;-0.224;2023-01-25T00:16:28;103706.12;;;6.18;34.00
76680;BME280;65597;51.520;-0.224;2023-01-25T00:18:55;103701.19;;;6.08;33.55
76680;BME280;65597;51.520;-0.224;2023-01-25T00:21:23;103698.85;;;6.07;33.49
76680;BME280;65597;51.520;-0.224;2023-01-25T00:23:44;103699.13;;;6.51;33.54
76680;BME280;65597;51.520;-0.224;2023-01-25T00:26:15;103698.10;;;6.45;33.61
76680;BME280;65597;51.520;-0.224;2023-01-25T00:28:35;103693.25;;;6.16;33.57
76680;BME280;65597;51.520;-0.224;2023-01-25T00:31:00;103692.50;;;6.27;33.83
76680;BME280;65597;51.520;-0.224;2023-01-25T00:33:37;103691.63;;;5.82;33.99
76680;BME280;65597;51.520;-0.224;2023-01-25T00:35:55;103689.14;;;5.90;33.86
76680;BME280;65597;51.520;-0.224;2023-01-25T00:38:26;103686.76;;;5.90;34.03
76680;BME280;65597;51.520;-0.224;2023-01-25T00:40:42;103687.98;;;5.61;34.20
76680;BME280;65597;51.520;-0.224;2023-01-25T00:43:08;103686.85;;;6.02;34.26
76680;BME280;65597;51.520;-0.224;2023-01-25T00:45:33;103683.21;;;5.80;34.02
76680;BME280;65597;51.520;-0.224;2023-01-25T00:47:59;103683.95;;;6.13;33.89
76680;BME280;65597;51.520;-0.224;2023-01-25T00:50:23;103682.42;;;5.56;34.02
76680;BME280;65597;51.520;-0.224;2023-01-25T00:52:49;103681.24;;;5.77;34.05
76680;BME280;65597;51.520;-0.224;2023-01-25T00:55:15;103682.61;;;5.98;33.97
76680;BME280;65597;51.520;-0.224;2023-01-25T00:57:42;103680.93;;;5.76;34.24
76680;BME280;65597;51.520;-0.224;2023-01-25T01:00:07;103677.04;;;5.85;34.26
76680;BME280;65597;51.520;-0.224;2023-01-25T01:02:31;103671.87;;;5.77;34.39
76680;BME280;65597;51.520;-0.224;2023-01-25T01:04:56;103667.54;;;5.69;34.41
76680;BME280;65597;51.520;-0.224;2023-01-25T01:07:21;103669.53;;;5.64;34.40
76680;BME280;65597;51.520;-0.224;2023-01-25T01:09:54;103664.96;;;5.63;34.50
76680;BME280;65597;51.520;-0.224;2023-01-25T01:12:12;103663.29;;;5.67;34.56
76680;BME280;65597;51.520;-0.224;2023-01-25T01:14:38;103660.83;;;5.71;34.59
76680;BME280;65597;51.520;-0.224;2023-01-25T01:17:03;103658.30;;;5.46;34.75
76680;BME280;65597;51.520;-0.224;2023-01-25T01:19:29;103659.02;;;5.75;34.65
76680;BME280;65597;51.520;-0.224;2023-01-25T01:21:55;103656.93;;;5.74;34.91
76680;BME280;65597;51.520;-0.224;2023-01-25T01:24:20;103655.98;;;5.41;34.90
76680;BME280;65597;51.520;-0.224;2023-01-25T01:26:45;103653.08;;;5.75;34.26
76680;BME280;65597;51.520;-0.224;2023-01-25T01:29:11;103657.73;;;5.79;34.76
76680;BME280;65597;51.520;-0.224;2023-01-25T01:31:36;103655.88;;;5.86;34.71
76680;BME280;65597;51.520;-0.224;2023-01-25T01:34:03;103651.49;;;5.80;34.58
76680;BME280;65597;51.520;-0.224;2023-01-25T01:36:28;103647.97;;;5.59;34.29
76680;BME280;65597;51.520;-0.224;2023-01-25T01:38:52;103646.57;;;5.79;34.17
76680;BME280;65597;51.520;-0.224;2023-01-25T01:41:18;103645.43;;;5.88;33.96
76680;BME280;65597;51.520;-0.224;2023-01-25T01:43:44;103642.50;;;5.61;34.13
76680;BME280;65597;51.520;-0.224;2023-01-25T01:46:14;103638.08;;;5.83;34.69
76680;BME280;65597;51.520;-0.224;2023-01-25T01:48:38;103637.23;;;5.83;34.70
76680;BME280;65597;51.520;-0.224;2023-01-25T01:51:02;103633.96;;;5.68;34.77
76680;BME280;65597;51.520;-0.224;2023-01-25T01:53:25;103636.20;;;5.41;34.88
76680;BME280;65597;51.520;-0.224;2023-01-25T01:55:52;103640.04;;;5.74;34.90
76680;BME280;65597;51.520;-0.224;2023-01-25T01:58:18;103641.39;;;5.53;35.29
76680;BME280;65597;51.520;-0.224;2023-01-25T02:00:40;103642.67;;;5.40;35.50
76680;BME280;65597;51.520;-0.224;2023-01-25T02:03:13;103644.49;;;5.52;35.30
76680;BME280;65597;51.520;-0.224;2023-01-25T02:05:39;103645.36;;;5.54;35.27
76680;BME280;65597;51.520;-0.224;2023-01-25T02:07:58;103649.12;;;5.48;35.00
76680;BME280;65597;51.520;-0.224;2023-01-25T02:10:26;103651.46;;;5.49;34.86
76680;BME280;65597;51.520;-0.224;2023-01-25T02:12:50;103654.92;;;5.49;34.99
76680;BME280;65597;51.520;-0.224;2023-01-25T02:15:14;103655.47;;;5.40;35.20
76680;BME280;65597;51.520;-0.224;2023-01-25T02:17:46;103656.77;;;5.33;35.25
76680;BME280;65597;51.520;-0.224;2023-01-25T02:20:11;103655.91;;;5.33;35.45
76680;BME280;65597;51.520;-0.224;2023-01-25T02:22:43;103662.21;;;5.35;35.40
76680;BME280;65597;51.520;-0.224;2023-01-25T02:25:03;103666.62;;;5.24;35.61
76680;BME280;65597;51.520;-0.224;2023-01-25T02:27:27;103662.51;;;5.37;35.56
76680;BME280;65597;51.520;-0.224;2023-01-25T02:29:47;103660.80;;;5.15;35.54
76680;BME280;65597;51.520;-0.224;2023-01-25T02:32:13;103661.15;;;5.35;35.53
76680;BME280;65597;51.520;-0.224;2023-01-25T02:34:38;103655.32;;;5.30;35.67
76680;BME280;65597;51.520;-0.224;2023-01-25T02:37:03;103654.90;;;4.97;36.27
76680;BME280;65597;51.520;-0.224;2023-01-25T02:39:29;103654.87;;;4.96;36.28
76680;BME280;65597;51.520;-0.224;2023-01-25T02:41:54;103655.37;;;5.06;36.19
76680;BME280;65597;51.520;-0.224;2023-01-25T02:44:23;103653.31;;;5.20;36.14
76680;BME280;65597;51.520;-0.224;2023-01-25T02:46:47;103657.32;;;5.31;36.33
76680;BME280;65597;51.520;-0.224;2023-01-25T02:49:11;103649.77;;;5.42;36.08
76680;BME280;65597;51.520;-0.224;2023-01-25T02:51:38;103650.90;;;5.14;36.03
76680;BME280;65597;51.520;-0.224;2023-01-25T02:54:04;103648.31;;;5.14;36.14
76680;BME280;65597;51.520;-0.224;2023-01-25T02:56:27;103643.25;;;5.21;35.91
76680;BME280;65597;51.520;-0.224;2023-01-25T02:58:53;103643.68;;;5.47;35.95
76680;BME280;65597;51.520;-0.224;2023-01-25T03:01:18;103648.56;;;4.97;36.17
76680;BME280;65597;51.520;-0.224;2023-01-25T03:03:44;103649.44;;;4.65;36.60
76680;BME280;65597;51.520;-0.224;2023-01-25T03:06:09;103654.38;;;5.20;36.34
76680;BME280;65597;51.520;-0.224;2023-01-25T03:08:35;103654.78;;;4.90;36.61
76680;BME280;65597;51.520;-0.224;2023-01-25T03:11:04;103655.02;;;4.65;36.54
76680;BME280;65597;51.520;-0.224;2023-01-25T03:13:26;103654.50;;;4.86;36.31
76680;BME280;65597;51.520;-0.224;2023-01-25T03:15:51;103652.34;;;4.75;36.48
76680;BME280;65597;51.520;-0.224;2023-01-25T03:18:16;103655.35;;;5.34;36.10
76680;BME280;65597;51.520;-0.224;2023-01-25T03:20:41;103651.79;;;5.33;36.10
76680;BME280;65597;51.520;-0.224;2023-01-25T03:23:14;103650.45;;;5.18;36.12
76680;BME280;65597;51.520;-0.224;2023-01-25T03:25:31;103650.18;;;5.14;36.07
76680;BME280;65597;51.520;-0.224;2023-01-25T03:27:57;103650.02;;;5.14;36.14
76680;BME280;65597;51.520;-0.224;2023-01-25T03:30:22;103648.11;;;5.07;36.27
76680;BME280;65597;51.520;-0.224;2023-01-25T03:32:48;103650.80;;;5.09;36.30
76680;BME280;65597;51.520;-0.224;2023-01-25T03:35:16;103647.56;;;4.85;36.58
76680;BME280;65597;51.520;-0.224;2023-01-25T03:37:39;103640.11;;;5.16;36.29
76680;BME280;65597;51.520;-0.224;2023-01-25T03:40:05;103637.12;;;5.19;36.19
76680;BME280;65597;51.520;-0.224;2023-01-25T03:42:29;103640.46;;;4.93;36.49
76680;BME280;65597;51.520;-0.224;2023-01-25T03:44:55;103637.55;;;5.01;36.39
76680;BME280;65597;51.520;-0.224;2023-01-25T03:47:23;103633.08;;;4.76;36.73
76680;BME280;65597;51.520;-0.224;2023-01-25T03:49:45;103629.14;;;5.00;36.44
76680;BME280;65597;51.520;-0.224;2023-01-25T03:52:10;103622.35;;;5.23;36.19
76680;BME280;65597;51.520;-0.224;2023-01-25T03:54:35;103620.04;;;5.08;36.41
76680;BME280;65597;51.520;-0.224;2023-01-25T03:57:01;103619.85;;;4.85;36.17
76680;BME280;65597;51.520;-0.224;2023-01-25T03:59:27;103621.29;;;5.32;36.24
76680;BME280;65597;51.520;-0.224;2023-01-25T04:01:52;103619.03;;;5.02;36.55
76680;BME280;65597;51.520;-0.224;2023-01-25T04:04:17;103621.52;;;5.01;36.47
76680;BME280;65597;51.520;-0.224;2023-01-25T04:06:42;103619.63;;;5.48;36.22
76680;BME280;65597;51.520;-0.224;2023-01-25T04:09:08;103613.47;;;5.20;36.27
76680;BME280;65597;51.520;-0.224;2023-01-25T04:11:33;103615.10;;;5.30;36.20
76680;BME280;65597;51.520;-0.224;2023-01-25T04:14:00;103614.69;;;5.31;36.19
76680;BME280;65597;51.520;-0.224;2023-01-25T04:16:24;103613.46;;;5.37;36.14
76680;BME280;65597;51.520;-0.224;2023-01-25T04:18:49;103612.21;;;5.21;36.22
76680;BME280;65597;51.520;-0.224;2023-01-25T04:21:15;103611.90;;;5.20;36.46
76680;BME280;65597;51.520;-0.224;2023-01-25T04:23:40;103612.02;;;4.73;37.16
76680;BME280;65597;51.520;-0.224;2023-01-25T04:26:07;103611.95;;;4.20;38.31
76680;BME280;65597;51.520;-0.224;2023-01-25T04:28:33;103607.68;;;4.30;38.34
76680;BME280;65597;51.520;-0.224;2023-01-25T04:30:57;103606.95;;;4.45;38.29
76680;BME280;65597;51.520;-0.224;2023-01-25T04:33:23;103608.39;;;4.45;38.32
76680;BME280;65597;51.520;-0.224;2023-01-25T04:35:48;103609.38;;;4.56;37.94
76680;BME280;65597;51.520;-0.224;2023-01-25T04:38:13;103608.69;;;4.42;38.04
76680;BME280;65597;51.520;-0.224;2023-01-25T04:40:39;103611.86;;;4.90;37.79
76680;BME280;65597;51.520;-0.224;2023-01-25T04:43:04;103605.65;;;4.80;37.62
76680;BME280;65597;51.520;-0.224;2023-01-25T04:45:29;103610.74;;;4.82;37.63
76680;BME280;65597;51.520;-0.224;2023-01-25T04:47:57;103608.52;;;4.39;37.86
76680;BME280;65597;51.520;-0.224;2023-01-25T04:50:20;103609.40;;;4.72;37.78
76680;BME280;65597;51.520;-0.224;2023-01-25T04:52:46;103605.40;;;4.60;37.89
76680;BME280;65597;51.520;-0.224;2023-01-25T04:55:10;103605.26;;;4.90;37.53
76680;BME280;65597;51.520;-0.224;2023-01-25T04:57:35;103607.50;;;4.86;37.31
76680;BME280;65597;51.520;-0.224;2023-01-25T05:00:02;103609.05;;;4.88;37.22
76680;BME280;65597;51.520;-0.224;2023-01-25T05:02:26;103606.24;;;4.69;37.34
76680;BME280;65597;51.520;-0.224;2023-01-25T05:04:51;103604.72;;;4.47;38.03
76680;BME280;65597;51.520;-0.224;2023-01-25T05:07:16;103608.17;;;4.60;37.62
76680;BME280;65597;51.520;-0.224;2023-01-25T05:09:45;103609.12;;;4.42;37.83
76680;BME280;65597;51.520;-0.224;2023-01-25T05:12:08;103607.96;;;4.77;37.73
76680;BME280;65597;51.520;-0.224;2023-01-25T05:14:32;103608.28;;;4.64;38.01
76680;BME280;65597;51.520;-0.224;2023-01-25T05:16:58;103606.98;;;4.52;37.86
76680;BME280;65597;51.520;-0.224;2023-01-25T05:19:23;103603.79;;;4.20;38.26
76680;BME280;65597;51.520;-0.224;2023-01-25T05:21:48;103601.83;;;4.17;38.53
76680;BME280;65597;51.520;-0.224;2023-01-25T05:24:14;103598.04;;;4.29;38.36
76680;BME280;65597;51.520;-0.224;2023-01-25T05:26:39;103598.06;;;4.47;38.11
76680;BME280;65597;51.520;-0.224;2023-01-25T05:29:04;103594.37;;;4.35;38.58
76680;BME280;65597;51.520;-0.224;2023-01-25T05:31:29;103595.90;;;4.07;38.62
76680;BME280;65597;51.520;-0.224;2023-01-25T05:33:55;103598.43;;;3.91;38.75
76680;BME280;65597;51.520;-0.224;2023-01-25T05:36:20;103600.10;;;3.65;39.07
76680;BME280;65597;51.520;-0.224;2023-01-25T05:38:46;103606.30;;;4.22;38.71
76680;BME280;65597;51.520;-0.224;2023-01-25T05:41:10;103607.66;;;3.93;39.11
76680;BME280;65597;51.520;-0.224;2023-01-25T05:43:36;103608.31;;;4.00;39.01
76680;BME280;65597;51.520;-0.224;2023-01-25T05:46:02;103611.24;;;4.08;38.96
76680;BME280;65597;51.520;-0.224;2023-01-25T05:48:28;103609.57;;;4.06;39.15
76680;BME280;65597;51.520;-0.224;2023-01-25T05:50:56;103606.11;;;3.86;39.11
76680;BME280;65597;51.520;-0.224;2023-01-25T05:53:24;103600.20;;;3.80;39.48
76680;BME280;65597;51.520;-0.224;2023-01-25T05:55:44;103597.44;;;4.07;39.20
76680;BME280;65597;51.520;-0.224;2023-01-25T05:58:09;103599.37;;;3.75;39.53
76680;BME280;65597;51.520;-0.224;2023-01-25T06:00:35;103601.86;;;4.07;39.26
76680;BME280;65597;51.520;-0.224;2023-01-25T06:03:01;103598.22;;;4.13;39.03
76680;BME280;65597;51.520;-0.224;2023-01-25T06:05:26;103596.29;;;3.89;39.47
76680;BME280;65597;51.520;-0.224;2023-01-25T06:07:51;103588.27;;;4.05;39.19
76680;BME280;65597;51.520;-0.224;2023-01-25T06:10:17;103589.31;;;3.88;39.13
76680;BME280;65597;51.520;-0.224;2023-01-25T06:12:44;103587.36;;;4.15;38.76
76680;BME280;65597;51.520;-0.224;2023-01-25T06:15:08;103587.86;;;4.03;39.32
76680;BME280;65597;51.520;-0.224;2023-01-25T06:17:37;103584.00;;;4.19;39.25
76680;BME280;65597;51.520;-0.224;2023-01-25T06:19:58;103583.09;;;3.92;39.71
76680;BME280;65597;51.520;-0.224;2023-01-25T06:22:24;103578.99;;;3.73;40.18
76680;BME280;65597;51.520;-0.224;2023-01-25T06:24:50;103578.36;;;3.49;40.50
76680;BME280;65597;51.520;-0.224;2023-01-25T06:27:25;103574.21;;;3.47;40.58
76680;BME280;65597;51.520;-0.224;2023-01-25T06:29:40;103573.12;;;3.64;40.97
76680;BME280;65597;51.520;-0.224;2023-01-25T06:32:05;103572.14;;;4.00;40.30
76680;BME280;65597;51.520;-0.224;2023-01-25T06:34:31;103566.62;;;4.26;39.88
76680;BME280;65597;51.520;-0.224;2023-01-25T06:36:57;103567.32;;;4.15;40.14
76680;BME280;65597;51.520;-0.224;2023-01-25T06:39:21;103566.74;;;4.02;39.91
76680;BME280;65597;51.520;-0.224;2023-01-25T06:41:47;103569.30;;;4.44;39.70
76680;BME280;65597;51.520;-0.224;2023-01-25T06:44:12;103568.38;;;4.50;39.49
76680;BME280;65597;51.520;-0.224;2023-01-25T06:46:38;103566.11;;;4.33;39.85
76680;BME280;65597;51.520;-0.224;2023-01-25T06:49:04;103564.14;;;3.89;40.56
76680;BME280;65597;51.520;-0.224;2023-01-25T06:51:28;103563.05;;;3.70;41.12
76680;BME280;65597;51.520;-0.224;2023-01-25T06:53:53;103561.74;;;3.95;41.28
76680;BME280;65597;51.520;-0.224;2023-01-25T06:56:24;103559.76;;;3.36;41.98
76680;BME280;65597;51.520;-0.224;2023-01-25T06:58:44;103558.90;;;3.56;42.03
76680;BME280;65597;51.520;-0.224;2023-01-25T07:01:14;103555.59;;;3.57;42.12
76680;BME280;65597;51.520;-0.224;2023-01-25T07:03:35;103554.07;;;3.55;42.14
76680;BME280;65597;51.520;-0.224;2023-01-25T07:06:01;103553.87;;;3.62;42.01
76680;BME280;65597;51.520;-0.224;2023-01-25T07:08:25;103553.07;;;4.01;41.78
76680;BME280;65597;51.520;-0.224;2023-01-25T07:10:53;103553.22;;;3.87;42.08
76680;BME280;65597;51.520;-0.224;2023-01-25T07:13:17;103556.45;;;3.59;41.80
76680;BME280;65597;51.520;-0.224;2023-01-25T07:15:42;103559.00;;;4.03;41.47
76680;BME280;65597;51.520;-0.224;2023-01-25T07:18:07;103554.43;;;4.13;41.23
76680;BME280;65597;51.520;-0.224;2023-01-25T07:20:33;103553.17;;;3.73;41.85
76680;BME280;65597;51.520;-0.224;2023-01-25T07:22:58;103552.45;;;3.60;42.01
76680;BME280;65597;51.520;-0.224;2023-01-25T07:25:25;103552.36;;;3.26;42.42
76680;BME280;65597;51.520;-0.224;2023-01-25T07:27:49;103548.55;;;3.33;42.38
76680;BME280;65597;51.520;-0.224;2023-01-25T07:30:16;103546.02;;;3.76;41.67
76680;BME280;65597;51.520;-0.224;2023-01-25T07:32:41;103545.33;;;3.30;42.38
76680;BME280;65597;51.520;-0.224;2023-01-25T07:35:07;103545.57;;;3.10;42.68
76680;BME280;65597;51.520;-0.224;2023-01-25T07:37:33;103545.30;;;3.67;42.19
76680;BME280;65597;51.520;-0.224;2023-01-25T07:39:57;103541.67;;;3.44;42.16
76680;BME280;65597;51.520;-0.224;2023-01-25T07:42:22;103539.66;;;3.47;41.94
76680;BME280;65597;51.520;-0.224;2023-01-25T07:44:47;103537.15;;;3.43;42.16
76680;BME280;65597;51.520;-0.224;2023-01-25T07:47:13;103536.99;;;3.43;42.28
76680;BME280;65597;51.520;-0.224;2023-01-25T07:49:38;103534.81;;;3.68;41.84
76680;BME280;65597;51.520;-0.224;2023-01-25T07:52:09;103534.61;;;3.94;45.24
76680;BME280;65597;51.520;-0.224;2023-01-25T07:54:30;103536.91;;;4.11;41.81
76680;BME280;65597;51.520;-0.224;2023-01-25T07:56:55;103533.00;;;4.21;41.18
76680;BME280;65597;51.520;-0.224;2023-01-25T07:59:20;103529.52;;;4.11;41.01
76680;BME280;65597;51.520;-0.224;2023-01-25T08:01:47;103527.75;;;4.55;40.73
76680;BME280;65597;51.520;-0.224;2023-01-25T08:04:11;103525.88;;;4.37;40.48
76680;BME280;65597;51.520;-0.224;2023-01-25T08:06:37;103527.02;;;4.20;40.59
76680;BME280;65597;51.520;-0.224;2023-01-25T08:09:05;103524.31;;;4.04;40.93
76680;BME280;65597;51.520;-0.224;2023-01-25T08:11:30;103520.26;;;3.85;41.08
76680;BME280;65597;51.520;-0.224;2023-01-25T08:13:53;103518.05;;;3.59;41.60
76680;BME280;65597;51.520;-0.224;2023-01-25T08:16:20;103516.28;;;3.96;41.38
76680;BME280;65597;51.520;-0.224;2023-01-25T08:18:46;103516.81;;;3.77;41.50
76680;BME280;65597;51.520;-0.224;2023-01-25T08:21:10;103512.42;;;3.05;42.88
76680;BME280;65597;51.520;-0.224;2023-01-25T08:23:35;103506.50;;;3.44;42.27
76680;BME280;65597;51.520;-0.224;2023-01-25T08:26:03;103513.13;;;3.41;42.12
76680;BME280;65597;51.520;-0.224;2023-01-25T08:28:26;103509.83;;;3.57;41.98
76680;BME280;65597;51.520;-0.224;2023-01-25T08:30:51;103506.19;;;3.24;42.48
76680;BME280;65597;51.520;-0.224;2023-01-25T08:33:16;103498.40;;;3.55;42.05
76680;BME280;65597;51.520;-0.224;2023-01-25T08:35:42;103504.16;;;3.57;42.81
76680;BME280;65597;51.520;-0.224;2023-01-25T08:38:09;103506.82;;;3.31;42.79
76680;BME280;65597;51.520;-0.224;2023-01-25T08:40:33;103501.29;;;2.53;43.64
76680;BME280;65597;51.520;-0.224;2023-01-25T08:42:58;103502.74;;;2.71;43.36
76680;BME280;65597;51.520;-0.224;2023-01-25T08:45:24;103498.86;;;3.20;43.31
76680;BME280;65597;51.520;-0.224;2023-01-25T08:47:54;103494.91;;;3.57;43.43
76680;BME280;65597;51.520;-0.224;2023-01-25T08:50:17;103489.18;;;3.18;42.67
76680;BME280;65597;51.520;-0.224;2023-01-25T08:52:41;103485.10;;;3.41;42.69
76680;BME280;65597;51.520;-0.224;2023-01-25T08:55:08;103483.70;;;3.21;42.48
76680;BME280;65597;51.520;-0.224;2023-01-25T08:57:32;103480.71;;;3.37;42.65
76680;BME280;65597;51.520;-0.224;2023-01-25T08:59:57;103480.88;;;3.56;41.97
76680;BME280;65597;51.520;-0.224;2023-01-25T09:02:23;103474.24;;;3.63;41.87
76680;BME280;65597;51.520;-0.224;2023-01-25T09:04:49;103473.72;;;4.14;41.51
76680;BME280;65597;51.520;-0.224;2023-01-25T09:07:14;103472.56;;;4.21;41.07
76680;BME280;65597;51.520;-0.224;2023-01-25T09:09:39;103472.06;;;4.09;41.27
76680;BME280;65597;51.520;-0.224;2023-01-25T09:12:05;103467.24;;;3.99;41.42
76680;BME280;65597;51.520;-0.224;2023-01-25T09:14:30;103460.72;;;3.89;41.50
76680;BME280;65597;51.520;-0.224;2023-01-25T09:16:55;103457.53;;;3.85;41.83
76680;BME280;65597;51.520;-0.224;2023-01-25T09:19:21;103455.88;;;3.84;42.02
76680;BME280;65597;51.520;-0.224;2023-01-25T09:21:46;103452.87;;;3.68;42.38
76680;BME280;65597;51.520;-0.224;2023-01-25T09:24:12;103444.83;;;3.89;42.22
76680;BME280;65597;51.520;-0.224;2023-01-25T09:26:40;103439.23;;;3.81;42.09
76680;BME280;65597;51.520;-0.224;2023-01-25T09:29:03;103430.37;;;3.81;42.44
76680;BME280;65597;51.520;-0.224;2023-01-25T09:31:28;103425.46;;;3.84;42.48
76680;BME280;65597;51.520;-0.224;2023-01-25T09:33:54;103422.70;;;3.88;42.55
76680;BME280;65597;51.520;-0.224;2023-01-25T09:36:19;103418.14;;;3.70;42.52
76680;BME280;65597;51.520;-0.224;2023-01-25T09:38:46;103416.62;;;3.73;42.65
76680;BME280;65597;51.520;-0.224;2023-01-25T09:41:20;103414.79;;;3.91;42.39
76680;BME280;65597;51.520;-0.224;2023-01-25T09:43:48;103409.88;;;3.80;42.65
76680;BME280;65597;51.520;-0.224;2023-01-25T09:46:08;103406.85;;;3.64;42.85
76680;BME280;65597;51.520;-0.224;2023-01-25T09:48:30;103404.47;;;3.67;42.86
76680;BME280;65597;51.520;-0.224;2023-01-25T09:51:07;103399.17;;;3.31;43.47
76680;BME280;65597;51.520;-0.224;2023-01-25T09:53:24;103394.49;;;3.52;43.50
76680;BME280;65597;51.520;-0.224;2023-01-25T09:55:43;103392.09;;;3.63;43.31
76680;BME280;65597;51.520;-0.224;2023-01-25T09:58:13;103393.09;;;3.60;42.99
76680;BME280;65597;51.520;-0.224;2023-01-25T10:00:36;103390.58;;;3.54;43.16
76680;BME280;65597;51.520;-0.224;2023-01-25T10:03:03;103387.67;;;3.41;43.56
76680;BME280;65597;51.520;-0.224;2023-01-25T10:05:27;103383.71;;;3.08;44.05
76680;BME280;65597;51.520;-0.224;2023-01-25T10:07:57;103383.05;;;3.07;44.38
76680;BME280;65597;51.520;-0.224;2023-01-25T10:10:16;103381.10;;;3.01;44.38
76680;BME280;65597;51.520;-0.224;2023-01-25T10:12:40;103375.54;;;2.97;44.65
76680;BME280;65597;51.520;-0.224;2023-01-25T10:15:17;103376.17;;;3.49;44.43
76680;BME280;65597;51.520;-0.224;2023-01-25T10:17:35;103368.28;;;3.04;44.43
76680;BME280;65597;51.520;-0.224;2023-01-25T10:20:08;103368.23;;;3.44;44.50
76680;BME280;65597;51.520;-0.224;2023-01-25T10:22:26;103360.81;;;3.22;44.61
76680;BME280;65597;51.520;-0.224;2023-01-25T10:25:05;103357.77;;;3.37;44.14
76680;BME280;65597;51.520;-0.224;2023-01-25T10:27:23;103349.86;;;3.29;44.64
76680;BME280;65597;51.520;-0.224;2023-01-25T10:29:39;103348.06;;;3.26;44.44
76680;BME280;65597;51.520;-0.224;2023-01-25T10:32:13;103342.93;;;3.81;44.39
76680;BME280;65597;51.520;-0.224;2023-01-25T10:34:33;103339.69;;;3.52;45.13
76680;BME280;65597;51.520;-0.224;2023-01-25T10:36:57;103335.59;;;3.50;44.21
76680;BME280;65597;51.520;-0.224;2023-01-25T10:39:23;103334.98;;;3.56;44.25
76680;BME280;65597;51.520;-0.224;2023-01-25T10:41:49;103335.99;;;3.83;43.72
76680;BME280;65597;51.520;-0.224;2023-01-25T10:44:12;103335.81;;;4.02;43.66
76680;BME280;65597;51.520;-0.224;2023-01-25T10:46:38;103333.36;;;4.03;43.56
76680;BME280;65597;51.520;-0.224;2023-01-25T10:49:15;103330.63;;;3.68;44.03
76680;BME280;65597;51.520;-0.224;2023-01-25T10:51:29;103324.76;;;3.33;44.20
76680;BME280;65597;51.520;-0.224;2023-01-25T10:53:58;103321.98;;;3.31;44.61
76680;BME280;65597;51.520;-0.224;2023-01-25T10:56:22;103317.58;;;3.78;44.39
76680;BME280;65597;51.520;-0.224;2023-01-25T10:58:46;103315.08;;;3.37;44.46
76680;BME280;65597;51.520;-0.224;2023-01-25T11:01:12;103311.39;;;2.96;45.21
76680;BME280;65597;51.520;-0.224;2023-01-25T11:03:38;103310.36;;;2.87;45.50
76680;BME280;65597;51.520;-0.224;2023-01-25T11:06:02;103308.50;;;3.12;45.51
76680;BME280;65597;51.520;-0.224;2023-01-25T11:08:34;103306.01;;;2.70;46.07
76680;BME280;65597;51.520;-0.224;2023-01-25T11:10:52;103303.96;;;3.45;45.69
76680;BME280;65597;51.520;-0.224;2023-01-25T11:13:21;103297.10;;;3.32;45.78
76680;BME280;65597;51.520;-0.224;2023-01-25T11:15:44;103290.62;;;2.94;45.87
76680;BME280;65597;51.520;-0.224;2023-01-25T11:18:11;103285.39;;;3.01;46.25
76680;BME280;65597;51.520;-0.224;2023-01-25T11:20:33;103278.70;;;3.34;46.19
76680;BME280;65597;51.520;-0.224;2023-01-25T11:22:59;103270.83;;;3.68;45.46
76680;BME280;65597;51.520;-0.224;2023-01-25T11:25:27;103265.50;;;3.74;45.10
76680;BME280;65597;51.520;-0.224;2023-01-25T11:27:51;103262.87;;;3.94;44.66
76680;BME280;65597;51.520;-0.224;2023-01-25T11:30:17;103256.37;;;3.58;45.04
76680;BME280;65597;51.520;-0.224;2023-01-25T11:32:42;103246.41;;;3.41;44.86
76680;BME280;65597;51.520;-0.224;2023-01-25T11:35:13;103236.02;;;3.40;45.25
76680;BME280;65597;51.520;-0.224;2023-01-25T11:37:45;103233.92;;;3.45;45.16
76680;BME280;65597;51.520;-0.224;2023-01-25T11:40:09;103236.82;;;3.66;44.94
76680;BME280;65597;51.520;-0.224;2023-01-25T11:42:32;103236.01;;;3.56;45.16
76680;BME280;65597;51.520;-0.224;2023-01-25T11:45:09;103229.83;;;3.76;44.68
76680;BME280;65597;51.520;-0.224;2023-01-25T11:47:24;103229.48;;;3.80;44.99
76680;BME280;65597;51.520;-0.224;2023-01-25T11:49:53;103232.47;;;3.59;44.81
76680;BME280;65597;51.520;-0.224;2023-01-25T11:52:19;103235.20;;;3.64;44.47
76680;BME280;65597;51.520;-0.224;2023-01-25T11:54:41;103230.19;;;3.82;44.79
76680;BME280;65597;51.520;-0.224;2023-01-25T11:56:59;103232.79;;;3.59;45.13
76680;BME280;65597;51.520;-0.224;2023-01-25T11:59:42;103224.20;;;3.66;45.05
76680;BME280;65597;51.520;-0.224;2023-01-25T12:02:02;103212.60;;;3.79;45.17
76680;BME280;65597;51.520;-0.224;2023-01-25T12:04:37;103197.43;;;3.79;44.63
76680;BME280;65597;51.520;-0.224;2023-01-25T12:06:47;103192.66;;;3.93;44.73
76680;BME280;65597;51.520;-0.224;2023-01-25T12:09:16;103195.61;;;3.81;44.86
76680;BME280;65597;51.520;-0.224;2023-01-25T12:11:42;103192.52;;;3.91;45.02
76680;BME280;65597;51.520;-0.224;2023-01-25T12:14:01;103191.47;;;3.92;44.76
76680;BME280;65597;51.520;-0.224;2023-01-25T12:16:31;103191.72;;;4.20;44.69
76680;BME280;65597;51.520;-0.224;2023-01-25T12:19:05;103189.47;;;4.17;44.79
76680;BME280;65597;51.520;-0.224;2023-01-25T12:21:21;103187.78;;;4.43;44.73
76680;BME280;65597;51.520;-0.224;2023-01-25T12:23:50;103182.21;;;3.90;45.07
76680;BME280;65597;51.520;-0.224;2023-01-25T12:26:11;103177.34;;;3.77;45.59
76680;BME280;65597;51.520;-0.224;2023-01-25T12:28:36;103173.52;;;4.02;45.28
76680;BME280;65597;51.520;-0.224;2023-01-25T12:30:56;103167.43;;;4.31;45.16
76680;BME280;65597;51.520;-0.224;2023-01-25T12:33:23;103171.38;;;3.94;45.96
76680;BME280;65597;51.520;-0.224;2023-01-25T12:35:49;103175.86;;;3.64;46.11
76680;BME280;65597;51.520;-0.224;2023-01-25T12:38:12;103186.57;;;3.98;46.05
76680;BME280;65597;51.520;-0.224;2023-01-25T12:40:44;103192.09;;;3.76;46.43